Casa Grande, AZ (85193)

6:37 PM MST on January 21, 2017 (GMT -0700)
SierraVista | | Change Station
Active Advisory: Areal Flood Advisory

Elev 1243 ft 32.88 °N, 111.86 °W | Updated 21 seconds ago

Clear
Clear
50.5 °F
Feels Like 50.5 °F
N
7.6
Wind Variable Wind from West
Gusts 10.7 mph

Today
High -- | Low -- °F
--% Chance of Precip.
Yesterday
High -- | Low -- °F
Precip. -- in
Pressure 29.96 in
Visibility 10.0 miles
Clouds Clear
Dew Point 37 °F
Humidity 60%
Rainfall 0.27 in
Snow Depth Not available.
7:28 AM 5:50 PM
Waning Crescent, 30% visible
METAR KCGZ 220056Z AUTO 24008KT 10SM CLR 12/03 A2995 RMK AO2 SLP143 T01170028 $
Pressure 29.96 in
Visibility 10.0 miles
Clouds Clear
Dew Point 37 °F
Humidity 60%
Rainfall 0.27 in
Snow Depth Not available.
7:28 AM 5:50 PM
Waning Crescent, 30% visible
METAR KCGZ 220056Z AUTO 24008KT 10SM CLR 12/03 A2995 RMK AO2 SLP143 T01170028 $

Get Your Daily Forecast Email!

Thanks for signing up!

Be on the lookout for a verification email in your inbox.

You'll start receiving the daily forecast at 8 AM.

×

10-Day Weather Forecast

Almanac

Astronomy

Jan. 21, 2017 Rise Set
Actual Time
Civil Twilight
Nautical Twilight
Astronomical Twilight
Moon
Length of Visible Light
Length of Day
Tomorrow will be .
, % of the Moon is Illuminated

Today's Extremes

State Highs State Lows

Community

WunderPhotos

Upload Photos

1,962,540 photos uploaded!

WunderBlog® & News

Nearby

Air Quality

  Air Quality AQ Index Pollutant
Not available.

Snow Depth

Station Depth Elevation

Earthquake Activity

City Distance Mag. Time & Date
Minimum magnitude displayed is 2.5.

Coastal Water Temperatures

Place Temperature

Stations

Nearby Weather Stations

Station Location Temp. Windchill Dew Point Humidity Wind Precip. Elev Updated Type
                   

Watches & Warnings

Areal Flood Advisory
Issued: 12:51 PM MST Jan. 21, 2017 – National Weather Service

The National Weather Service in Phoenix has issued a

* Flood Advisory for...
Maricopa County in south central Arizona...
Gila County in east central Arizona...
Pinal County in southeastern Arizona...

* until 1045 PM MST Saturday

* at 1250 PM MST, stream gauges indicated continuing runoff in
normally dry washes and creeks over southern Gila, far northeast
Maricopa, and far north-central Pinal counties. This will cause
Road flooding at unbridged crossings the rest of the afternoon
through most of the evening.

* Some streams that will experience flooding include... but are not
limited to... tonto creek, Sycamore Creek, Queen Creek, Cave Creek,
and skunk creek. In addition, there will also be some flowing
water in the Salt River below Granite reef dam.

Lat... Lon 3339 11044 3320 11040 3314 11064 3299 11078
      3325 11094 3307 11121 3348 11183 3405 11216
      3400 11178 3402 11144 3380 11116 3376 11098
      3365 11092 3369 11084 3365 11078 3385 11056
      3382 11032 3359 11000 3347 11000


Aj